createdAt,value
2023-02-26T00:01:34.198Z,5.32
2023-02-26T00:06:33.563Z,4.53
2023-02-26T00:09:01.386Z,4.45
2023-02-26T00:11:31.683Z,4.60
2023-02-26T00:13:59.856Z,4.93
2023-02-26T00:16:30.171Z,4.13
2023-02-26T00:19:00.158Z,3.70
2023-02-26T00:21:28.685Z,3.72
2023-02-26T00:23:56.877Z,5.47
2023-02-26T00:26:27.584Z,3.83
2023-02-26T00:28:57.989Z,3.88
2023-02-26T00:31:26.402Z,4.22
2023-02-26T00:33:56.062Z,4.75
2023-02-26T00:36:26.547Z,4.30
2023-02-26T00:39:08.696Z,4.40
2023-02-26T00:41:38.802Z,4.55
2023-02-26T00:44:09.155Z,4.22
2023-02-26T00:46:44.803Z,4.55
2023-02-26T00:49:24.340Z,3.97
2023-02-26T00:51:56.750Z,4.82
2023-02-26T00:54:26.864Z,4.28
2023-02-26T00:56:55.879Z,4.10
2023-02-26T00:59:25.277Z,4.38
2023-02-26T01:01:54.392Z,3.78
2023-02-26T01:04:24.988Z,3.75
2023-02-26T01:06:57.171Z,4.30
2023-02-26T01:09:28.041Z,4.65
2023-02-26T01:12:03.399Z,4.10
2023-02-26T01:14:33.553Z,4.10
2023-02-26T01:17:05.813Z,4.50
2023-02-26T01:19:42.543Z,3.90
2023-02-26T01:22:17.481Z,4.63
2023-02-26T01:24:47.306Z,3.70
2023-02-26T01:27:15.290Z,4.03
2023-02-26T01:29:45.721Z,4.30
2023-02-26T01:32:21.038Z,4.03
2023-02-26T01:34:56.661Z,4.68
2023-02-26T01:37:30.246Z,4.68
2023-02-26T01:40:38.478Z,4.15
2023-02-26T01:43:11.546Z,4.60
2023-02-26T01:45:56.740Z,4.20
2023-02-26T01:48:37.461Z,4.20
2023-02-26T01:51:06.406Z,5.40
2023-02-26T01:53:35.292Z,4.93
2023-02-26T01:56:07.999Z,4.43
2023-02-26T01:58:37.664Z,5.72
2023-02-26T02:03:40.145Z,5.43
2023-02-26T02:06:10.530Z,4.63
2023-02-26T02:08:38.194Z,4.22
2023-02-26T02:11:10.177Z,4.03
2023-02-26T02:13:48.029Z,4.03
2023-02-26T02:16:29.523Z,4.65
2023-02-26T02:19:07.092Z,3.92
2023-02-26T02:21:51.632Z,4.03
2023-02-26T02:24:29.654Z,3.83
2023-02-26T02:27:04.404Z,3.78
2023-02-26T02:30:10.268Z,4.20
2023-02-26T02:32:45.724Z,3.72
2023-02-26T02:35:18.992Z,3.60
2023-02-26T02:37:52.680Z,3.75
2023-02-26T02:40:24.329Z,3.85
2023-02-26T02:43:00.203Z,3.80
2023-02-26T02:45:32.398Z,3.67
2023-02-26T02:48:07.381Z,3.67
2023-02-26T02:50:38.223Z,3.75
2023-02-26T02:53:13.504Z,3.50
2023-02-26T02:55:46.856Z,3.22
2023-02-26T02:58:18.964Z,3.10
2023-02-26T03:00:50.844Z,3.70
2023-02-26T03:03:26.388Z,2.90
2023-02-26T03:05:54.414Z,3.70
2023-02-26T03:08:25.033Z,3.35
2023-02-26T03:10:53.313Z,3.65
2023-02-26T03:13:23.503Z,3.38
2023-02-26T03:16:01.597Z,3.38
2023-02-26T03:18:42.677Z,2.85
2023-02-26T03:21:17.927Z,3.42
2023-02-26T03:23:55.397Z,3.35
2023-02-26T03:26:30.593Z,2.90
2023-02-26T03:29:04.429Z,3.45
2023-02-26T03:31:38.255Z,3.20
2023-02-26T03:34:12.651Z,2.95
2023-02-26T03:36:44.777Z,3.70
2023-02-26T03:39:16.125Z,3.60
2023-02-26T03:41:48.477Z,2.70
2023-02-26T03:44:24.349Z,3.25
2023-02-26T03:46:55.483Z,3.03
2023-02-26T03:49:28.491Z,2.88
2023-02-26T03:51:59.461Z,3.00
2023-02-26T03:54:31.465Z,3.30
2023-02-26T03:56:59.541Z,3.10
2023-02-26T03:59:27.248Z,2.97
2023-02-26T04:02:00.583Z,3.28
2023-02-26T04:04:34.703Z,3.45
2023-02-26T04:07:03.599Z,3.15
2023-02-26T04:09:31.411Z,3.30
2023-02-26T04:12:00.068Z,3.28
2023-02-26T04:14:28.176Z,3.03
2023-02-26T04:16:55.859Z,3.40
2023-02-26T04:19:23.548Z,2.83
2023-02-26T04:21:52.929Z,2.90
2023-02-26T04:24:20.608Z,3.40
2023-02-26T04:26:48.257Z,3.03
2023-02-26T04:29:16.303Z,2.95
2023-02-26T04:31:44.050Z,2.70
2023-02-26T04:34:11.858Z,2.83
2023-02-26T04:36:39.854Z,2.80
2023-02-26T04:39:10.584Z,3.00
2023-02-26T04:41:38.619Z,3.45
2023-02-26T04:44:07.624Z,3.22
2023-02-26T04:46:35.388Z,3.08
2023-02-26T04:49:03.073Z,3.03
2023-02-26T04:51:31.088Z,2.90
2023-02-26T04:53:58.812Z,2.60
2023-02-26T04:56:28.549Z,2.90
2023-02-26T04:58:56.541Z,3.20
2023-02-26T05:01:24.268Z,2.80
2023-02-26T05:03:52.043Z,2.70
2023-02-26T05:06:20.160Z,2.30
2023-02-26T05:08:47.831Z,2.70
2023-02-26T05:11:15.504Z,2.85
2023-02-26T05:13:44.641Z,2.65
2023-02-26T05:16:12.509Z,2.85
2023-02-26T05:18:40.263Z,2.58
2023-02-26T05:21:08.141Z,2.75
2023-02-26T05:23:35.824Z,2.40
2023-02-26T05:26:03.577Z,2.63
2023-02-26T05:28:34.260Z,2.58
2023-02-26T05:31:03.672Z,2.42
2023-02-26T05:33:31.498Z,2.35
2023-02-26T05:35:59.462Z,2.25
2023-02-26T05:38:27.170Z,3.15
2023-02-26T05:40:57.990Z,2.50
2023-02-26T05:43:26.402Z,2.40
2023-02-26T05:45:55.464Z,2.30
2023-02-26T05:48:24.619Z,2.47
2023-02-26T05:50:53.167Z,2.50
2023-02-26T05:53:20.911Z,2.50
2023-02-26T05:55:48.967Z,2.55
2023-02-26T05:58:17.028Z,2.80
2023-02-26T06:00:44.745Z,2.15
2023-02-26T06:03:12.451Z,2.33
2023-02-26T06:05:41.695Z,2.40
2023-02-26T06:08:09.376Z,2.28
2023-02-26T06:10:37.094Z,2.28
2023-02-26T06:13:06.287Z,2.22
2023-02-26T06:15:34.014Z,2.50
2023-02-26T06:18:01.690Z,2.50
2023-02-26T06:20:30.044Z,2.63
2023-02-26T06:22:59.067Z,2.30
2023-02-26T06:25:26.902Z,2.40
2023-02-26T06:27:54.775Z,2.45
2023-02-26T06:30:23.896Z,2.05
2023-02-26T06:32:51.621Z,2.20
2023-02-26T06:35:20.505Z,2.58
2023-02-26T06:37:48.199Z,2.05
2023-02-26T06:40:17.573Z,2.10
2023-02-26T06:42:45.584Z,2.08
2023-02-26T06:45:13.297Z,2.13
2023-02-26T06:47:40.973Z,1.85
2023-02-26T06:50:10.577Z,2.38
2023-02-26T06:52:38.304Z,2.70
2023-02-26T06:55:06.787Z,2.47
2023-02-26T06:57:36.168Z,2.22
2023-02-26T07:00:05.038Z,2.20
2023-02-26T07:02:32.811Z,2.45
2023-02-26T07:05:00.820Z,2.05
2023-02-26T07:07:28.682Z,2.20
2023-02-26T07:09:56.439Z,2.53
2023-02-26T07:12:24.129Z,2.03
2023-02-26T07:14:53.225Z,2.40
2023-02-26T07:17:21.292Z,2.10
2023-02-26T07:19:50.213Z,2.20
2023-02-26T07:22:20.904Z,1.80
2023-02-26T07:24:49.521Z,2.22
2023-02-26T07:27:17.561Z,2.28
2023-02-26T07:29:45.193Z,2.00
2023-02-26T07:32:14.267Z,2.13
2023-02-26T07:34:42.680Z,2.70
2023-02-26T07:37:10.405Z,2.67
2023-02-26T07:39:38.073Z,2.42
2023-02-26T07:42:06.417Z,2.97
2023-02-26T07:44:34.069Z,2.45
2023-02-26T07:47:01.871Z,2.67
2023-02-26T07:49:32.811Z,2.28
2023-02-26T07:52:00.744Z,2.25
2023-02-26T07:54:28.944Z,1.92
2023-02-26T07:56:56.738Z,2.10
2023-02-26T07:59:24.417Z,1.83
2023-02-26T08:01:53.054Z,2.15
2023-02-26T08:04:20.953Z,1.92
2023-02-26T08:06:50.042Z,2.17
2023-02-26T08:09:17.909Z,1.80
2023-02-26T08:11:45.845Z,1.95
2023-02-26T08:14:13.601Z,1.80
2023-02-26T08:16:41.615Z,1.73
2023-02-26T08:19:09.646Z,2.15
2023-02-26T08:21:37.654Z,2.08
2023-02-26T08:24:07.063Z,1.65
2023-02-26T08:26:37.628Z,2.05
2023-02-26T08:29:06.126Z,1.65
2023-02-26T08:31:34.608Z,2.13
2023-02-26T08:34:03.157Z,1.65
2023-02-26T08:36:31.217Z,1.70
2023-02-26T08:38:59.031Z,1.85
2023-02-26T08:41:30.368Z,1.92
2023-02-26T08:43:58.031Z,2.20
2023-02-26T08:46:26.185Z,1.88
2023-02-26T08:48:54.749Z,1.73
2023-02-26T08:51:22.913Z,1.95
2023-02-26T08:53:51.225Z,2.28
2023-02-26T08:56:19.286Z,2.03
2023-02-26T08:58:48.292Z,2.28
2023-02-26T09:01:16.033Z,1.83
2023-02-26T09:03:44.212Z,1.60
2023-02-26T09:06:11.921Z,1.80
2023-02-26T09:08:39.684Z,1.60
2023-02-26T09:11:07.680Z,1.50
2023-02-26T09:13:35.328Z,1.85
2023-02-26T09:16:04.908Z,1.77
2023-02-26T09:18:32.965Z,1.33
2023-02-26T09:21:00.648Z,1.60
2023-02-26T09:23:28.385Z,1.60
2023-02-26T09:25:57.424Z,1.90
2023-02-26T09:28:26.678Z,6.03
2023-02-26T09:30:55.470Z,1.67
2023-02-26T09:33:24.685Z,2.38
2023-02-26T09:35:53.587Z,3.20
2023-02-26T09:38:21.781Z,3.83
2023-02-26T09:40:53.021Z,4.65
2023-02-26T09:43:45.728Z,2.70
2023-02-26T09:46:26.286Z,3.22
2023-02-26T09:49:17.663Z,3.83
2023-02-26T09:51:49.837Z,2.10
2023-02-26T09:54:23.116Z,1.73
2023-02-26T09:56:52.866Z,2.03
2023-02-26T09:59:20.936Z,2.45
2023-02-26T10:01:57.334Z,2.70
2023-02-26T10:04:42.861Z,1.40
2023-02-26T10:07:22.207Z,1.48
2023-02-26T10:10:04.131Z,1.38
2023-02-26T10:12:36.385Z,1.73
2023-02-26T10:15:12.005Z,1.58
2023-02-26T10:17:50.768Z,1.33
2023-02-26T10:20:24.948Z,1.35
2023-02-26T10:22:59.564Z,1.27
2023-02-26T10:25:32.629Z,1.60
2023-02-26T10:28:08.474Z,2.03
2023-02-26T10:30:41.284Z,1.90
2023-02-26T10:33:19.934Z,1.63
2023-02-26T10:35:54.082Z,1.75
2023-02-26T10:38:25.867Z,1.50
2023-02-26T10:40:59.806Z,1.45
2023-02-26T10:43:32.299Z,1.20
2023-02-26T10:46:11.271Z,1.10
2023-02-26T10:48:53.750Z,1.10
2023-02-26T10:51:26.461Z,1.00
2023-02-26T10:53:59.290Z,1.15
2023-02-26T10:56:31.327Z,1.05
2023-02-26T10:58:59.899Z,1.05
2023-02-26T11:01:31.225Z,0.90
2023-02-26T11:04:02.869Z,1.40
2023-02-26T11:06:35.736Z,1.15
2023-02-26T11:09:06.320Z,0.98
2023-02-26T11:11:41.793Z,1.13
2023-02-26T11:14:10.707Z,0.80
2023-02-26T11:16:46.942Z,0.93
2023-02-26T11:19:17.108Z,1.20
2023-02-26T11:21:48.228Z,1.13
2023-02-26T11:24:20.913Z,0.90
2023-02-26T11:26:51.216Z,1.02
2023-02-26T11:29:21.344Z,1.10
2023-02-26T11:31:51.567Z,1.27
2023-02-26T11:34:24.488Z,1.08
2023-02-26T11:36:55.883Z,1.05
2023-02-26T11:39:25.271Z,1.45
2023-02-26T11:41:56.869Z,1.38
2023-02-26T11:44:35.233Z,1.48
2023-02-26T11:47:07.075Z,1.50
2023-02-26T11:49:35.741Z,1.15
2023-02-26T11:52:20.510Z,1.00
2023-02-26T11:55:02.867Z,0.90
2023-02-26T11:57:33.005Z,1.30
2023-02-26T12:00:02.593Z,1.00
2023-02-26T12:02:36.403Z,0.95
2023-02-26T12:05:08.131Z,1.13
2023-02-26T12:07:39.191Z,1.00
2023-02-26T12:10:16.635Z,0.90
2023-02-26T12:12:59.168Z,1.20
2023-02-26T12:15:36.245Z,1.13
2023-02-26T12:18:28.821Z,1.10
2023-02-26T12:21:07.069Z,1.10
2023-02-26T12:23:50.196Z,1.20
2023-02-26T12:26:28.216Z,1.33
2023-02-26T12:29:28.715Z,1.00
2023-02-26T12:32:26.132Z,1.23
2023-02-26T12:35:15.664Z,1.10
2023-02-26T12:37:56.835Z,1.27
2023-02-26T12:40:48.951Z,0.90
2023-02-26T12:43:26.159Z,1.10
2023-02-26T12:46:02.386Z,1.00
2023-02-26T12:49:04.239Z,1.13
2023-02-26T12:51:49.646Z,1.63
2023-02-26T12:54:45.647Z,2.70
2023-02-26T12:57:30.413Z,2.40
2023-02-26T13:00:18.071Z,4.22
2023-02-26T13:03:31.303Z,3.30
2023-02-26T13:06:29.628Z,3.35
2023-02-26T13:09:09.212Z,1.77
2023-02-26T13:14:45.428Z,1.00
2023-02-26T13:17:23.410Z,1.00
2023-02-26T13:19:56.733Z,1.80
2023-02-26T13:22:29.794Z,2.20
2023-02-26T13:25:03.869Z,2.45
2023-02-26T13:27:35.609Z,1.52
2023-02-26T13:30:20.119Z,1.30
2023-02-26T13:32:50.073Z,2.00
2023-02-26T13:35:22.585Z,1.25
2023-02-26T13:37:53.711Z,1.75
2023-02-26T13:40:37.066Z,1.27
2023-02-26T13:43:16.571Z,1.70
2023-02-26T13:45:55.005Z,1.17
2023-02-26T13:48:32.264Z,1.20
2023-02-26T13:51:09.406Z,1.98
2023-02-26T13:53:49.961Z,1.20
2023-02-26T13:56:19.656Z,1.70
2023-02-26T14:01:21.227Z,1.38
2023-02-26T14:03:52.096Z,1.45
2023-02-26T14:06:39.027Z,1.20
2023-02-26T14:09:31.502Z,1.65
2023-02-26T14:12:02.430Z,1.88
2023-02-26T14:14:37.423Z,2.03
2023-02-26T14:17:37.640Z,2.10
2023-02-26T14:20:18.926Z,2.90
2023-02-26T14:22:50.137Z,1.30
2023-02-26T14:25:23.565Z,1.95
2023-02-26T14:27:52.100Z,2.65
2023-02-26T14:33:20.601Z,2.55
2023-02-26T14:35:52.268Z,1.85
2023-02-26T14:38:24.768Z,1.30
2023-02-26T14:40:57.292Z,2.33
2023-02-26T14:43:36.279Z,1.10
2023-02-26T14:46:05.754Z,1.05
2023-02-26T14:48:35.660Z,1.13
2023-02-26T14:51:17.827Z,2.95
2023-02-26T14:54:01.620Z,3.20
2023-02-26T14:56:40.784Z,2.25
2023-02-26T14:59:31.639Z,1.95
2023-02-26T15:02:11.319Z,3.28
2023-02-26T15:05:07.910Z,2.15
2023-02-26T15:07:50.097Z,3.60
2023-02-26T15:10:30.445Z,4.05
2023-02-26T15:13:17.513Z,1.70
2023-02-26T15:15:53.828Z,2.35
2023-02-26T15:19:03.640Z,1.58
2023-02-26T15:21:44.533Z,4.50
2023-02-26T15:24:16.022Z,2.55
2023-02-26T15:26:50.724Z,4.05
2023-02-26T15:29:19.576Z,3.95
2023-02-26T15:31:56.454Z,3.50
2023-02-26T15:34:25.310Z,4.07
2023-02-26T15:36:55.193Z,3.00
2023-02-26T15:39:25.956Z,3.60
2023-02-26T15:41:56.518Z,1.83
2023-02-26T15:44:28.659Z,2.25
2023-02-26T15:46:58.866Z,1.58
2023-02-26T15:49:30.930Z,1.20
2023-02-26T15:52:02.624Z,1.50
2023-02-26T15:54:36.981Z,1.30
2023-02-26T15:57:05.464Z,3.40
2023-02-26T15:59:34.143Z,3.75
2023-02-26T16:04:53.277Z,3.70
2023-02-26T16:07:23.725Z,2.00
2023-02-26T16:09:54.154Z,3.22
2023-02-26T16:12:25.485Z,1.90
2023-02-26T16:14:57.154Z,1.90
2023-02-26T16:17:28.546Z,2.28
2023-02-26T16:19:58.488Z,3.10
2023-02-26T16:22:34.040Z,4.05
2023-02-26T16:25:06.910Z,1.85
2023-02-26T16:27:36.276Z,1.40
2023-02-26T16:30:06.974Z,2.00
2023-02-26T16:32:37.397Z,2.00
2023-02-26T16:35:12.011Z,6.25
2023-02-26T16:37:46.143Z,3.00
2023-02-26T16:40:20.183Z,3.92
2023-02-26T16:42:55.854Z,1.60
2023-02-26T16:45:49.403Z,13.00
2023-02-26T16:48:20.951Z,17.30
2023-02-26T16:50:56.562Z,18.70
2023-02-26T16:53:32.400Z,3.72
2023-02-26T16:56:00.702Z,9.77
2023-02-26T16:58:30.597Z,11.18
2023-02-26T17:01:07.322Z,4.57
2023-02-26T17:03:38.456Z,3.13
2023-02-26T17:06:11.210Z,4.03
2023-02-26T17:08:50.448Z,3.03
2023-02-26T17:11:24.993Z,2.53
2023-02-26T17:14:05.589Z,5.85
2023-02-26T17:16:33.868Z,7.03
2023-02-26T17:19:02.619Z,3.35
2023-02-26T17:21:31.017Z,9.90
2023-02-26T17:24:00.592Z,3.25
2023-02-26T17:26:28.343Z,2.47
2023-02-26T17:28:56.028Z,4.60
2023-02-26T17:31:23.718Z,2.58
2023-02-26T17:33:52.315Z,16.23
2023-02-26T17:36:21.272Z,5.47
2023-02-26T17:38:50.446Z,16.60
2023-02-26T17:41:20.224Z,9.10
2023-02-26T17:43:47.939Z,8.48
2023-02-26T17:46:15.682Z,20.98
2023-02-26T17:48:43.423Z,9.07
2023-02-26T17:51:13.802Z,16.02
2023-02-26T17:53:44.439Z,7.15
2023-02-26T17:56:16.920Z,4.65
2023-02-26T17:58:47.118Z,4.25
2023-02-26T18:01:14.821Z,4.20
2023-02-26T18:03:43.330Z,2.30
2023-02-26T18:06:14.003Z,2.63
2023-02-26T18:08:42.063Z,2.50
2023-02-26T18:11:13.624Z,3.08
2023-02-26T18:13:41.752Z,3.25
2023-02-26T18:16:18.028Z,2.97
2023-02-26T18:18:46.662Z,2.83
2023-02-26T18:21:15.089Z,3.25
2023-02-26T18:23:42.770Z,2.78
2023-02-26T18:26:11.955Z,2.70
2023-02-26T18:28:39.744Z,3.17
2023-02-26T18:31:09.243Z,4.88
2023-02-26T18:36:12.735Z,10.02
2023-02-26T18:38:41.813Z,7.07
2023-02-26T18:41:09.472Z,7.95
2023-02-26T18:43:37.105Z,5.75
2023-02-26T18:46:05.594Z,7.15
2023-02-26T18:48:33.268Z,6.60
2023-02-26T18:51:02.306Z,6.63
2023-02-26T18:53:30.161Z,16.27
2023-02-26T18:55:58.151Z,25.30
2023-02-26T18:58:26.049Z,28.73
2023-02-26T19:00:53.912Z,13.57
2023-02-26T19:03:21.543Z,11.95
2023-02-26T19:05:57.210Z,13.23
2023-02-26T19:08:26.458Z,11.80
2023-02-26T19:10:54.902Z,10.32
2023-02-26T19:13:24.038Z,16.45
2023-02-26T19:15:51.935Z,9.98
2023-02-26T19:18:20.550Z,7.93
2023-02-26T19:20:48.611Z,6.07
2023-02-26T19:23:16.356Z,5.75
2023-02-26T19:25:45.398Z,5.22
2023-02-26T19:28:13.233Z,5.78
2023-02-26T19:30:40.904Z,6.20
2023-02-26T19:33:08.912Z,6.20
2023-02-26T19:35:37.298Z,7.20
2023-02-26T19:38:04.962Z,5.68
2023-02-26T19:40:32.695Z,5.60
2023-02-26T19:43:03.376Z,5.88
2023-02-26T19:45:31.680Z,5.72
2023-02-26T19:47:59.354Z,5.85
2023-02-26T19:50:27.572Z,5.65
2023-02-26T19:52:56.152Z,5.15
2023-02-26T19:55:23.840Z,5.78
2023-02-26T19:57:51.685Z,6.00
2023-02-26T20:00:21.463Z,5.00
2023-02-26T20:05:18.333Z,5.25
2023-02-26T20:07:48.094Z,5.47
2023-02-26T20:10:16.655Z,5.00
2023-02-26T20:12:45.083Z,5.03
2023-02-26T20:15:13.616Z,4.68
2023-02-26T20:17:42.665Z,5.50
2023-02-26T20:20:12.034Z,5.28
2023-02-26T20:22:39.687Z,5.82
2023-02-26T20:25:07.814Z,5.07
2023-02-26T20:27:36.716Z,4.90
2023-02-26T20:30:04.907Z,5.15
2023-02-26T20:32:33.003Z,4.95
2023-02-26T20:35:02.535Z,4.90
2023-02-26T20:37:30.211Z,4.65
2023-02-26T20:39:57.932Z,4.63
2023-02-26T20:42:26.120Z,4.75
2023-02-26T20:44:53.781Z,4.60
2023-02-26T20:47:21.616Z,4.63
2023-02-26T20:49:50.003Z,5.18
2023-02-26T20:52:19.069Z,4.60
2023-02-26T20:54:46.709Z,4.88
2023-02-26T20:57:16.328Z,4.70
2023-02-26T20:59:43.969Z,4.25
2023-02-26T21:02:13.701Z,4.50
2023-02-26T21:07:21.708Z,4.25
2023-02-26T21:09:52.599Z,4.80
2023-02-26T21:12:20.596Z,4.25
2023-02-26T21:14:51.200Z,4.28
2023-02-26T21:17:19.554Z,4.03
2023-02-26T21:19:47.444Z,4.47
2023-02-26T21:22:15.226Z,3.88
2023-02-26T21:24:43.077Z,3.80
2023-02-26T21:27:12.266Z,3.78
2023-02-26T21:29:40.393Z,4.07
2023-02-26T21:32:08.346Z,4.05
2023-02-26T21:34:36.306Z,3.67
2023-02-26T21:37:06.469Z,4.78
2023-02-26T21:39:35.115Z,3.63
2023-02-26T21:42:04.351Z,3.42
2023-02-26T21:44:35.505Z,3.17
2023-02-26T21:47:03.961Z,3.40
2023-02-26T21:49:32.511Z,3.53
2023-02-26T21:52:02.152Z,3.75
2023-02-26T21:54:30.308Z,3.67
2023-02-26T21:56:58.171Z,3.42
2023-02-26T21:59:26.131Z,3.63
2023-02-26T22:01:55.212Z,3.92
2023-02-26T22:04:22.996Z,3.50
2023-02-26T22:06:50.886Z,3.30
2023-02-26T22:09:19.105Z,3.80
2023-02-26T22:11:47.395Z,3.10
2023-02-26T22:14:15.397Z,3.30
2023-02-26T22:16:43.143Z,3.20
2023-02-26T22:19:12.381Z,3.30
2023-02-26T22:21:40.675Z,2.72
2023-02-26T22:24:09.088Z,3.00
2023-02-26T22:26:36.804Z,2.95
2023-02-26T22:29:05.291Z,3.45
2023-02-26T22:31:33.969Z,3.10
2023-02-26T22:34:01.916Z,2.90
2023-02-26T22:36:31.828Z,2.90
2023-02-26T22:38:59.514Z,3.30
2023-02-26T22:41:27.268Z,2.83
2023-02-26T22:43:56.172Z,2.95
2023-02-26T22:46:24.454Z,3.00
2023-02-26T22:48:52.669Z,2.85
2023-02-26T22:51:20.880Z,3.10
2023-02-26T22:53:49.980Z,3.13
2023-02-26T22:56:17.662Z,3.20
2023-02-26T22:58:45.509Z,2.80
2023-02-26T23:01:13.361Z,2.45
2023-02-26T23:03:41.080Z,2.70
2023-02-26T23:06:09.697Z,2.58
2023-02-26T23:08:37.455Z,2.30
2023-02-26T23:11:07.450Z,3.00
2023-02-26T23:13:37.187Z,2.90
2023-02-26T23:18:34.131Z,2.63
2023-02-26T23:21:02.387Z,2.38
2023-02-26T23:23:30.077Z,2.83
2023-02-26T23:25:57.754Z,2.70
2023-02-26T23:28:28.586Z,2.60
2023-02-26T23:30:56.289Z,2.90
2023-02-26T23:33:24.087Z,2.70
2023-02-26T23:35:53.577Z,2.70
2023-02-26T23:38:21.302Z,3.08
2023-02-26T23:40:49.380Z,2.83
2023-02-26T23:43:18.203Z,3.00
2023-02-26T23:45:47.242Z,2.47
2023-02-26T23:48:14.937Z,2.45
2023-02-26T23:50:43.081Z,2.42
2023-02-26T23:53:10.780Z,2.45
2023-02-26T23:55:38.456Z,2.35
2023-02-26T23:58:06.570Z,2.63
